sensor_id;sensor_type;location;lat;lon;timestamp;P1;durP1;ratioP1;P2;durP2;ratioP2
57573;SDS011;68988;49.000;21.242;2023-06-19T00:01:55;0.70;;;0.70;;
57573;SDS011;68988;49.000;21.242;2023-06-19T00:04:20;0.60;;;0.60;;
57573;SDS011;68988;49.000;21.242;2023-06-19T00:06:46;0.60;;;0.60;;
57573;SDS011;68988;49.000;21.242;2023-06-19T00:09:11;0.52;;;0.52;;
57573;SDS011;68988;49.000;21.242;2023-06-19T00:11:36;0.70;;;0.70;;
57573;SDS011;68988;49.000;21.242;2023-06-19T00:14:02;0.70;;;0.70;;
57573;SDS011;68988;49.000;21.242;2023-06-19T00:16:27;0.70;;;0.70;;
57573;SDS011;68988;49.000;21.242;2023-06-19T00:18:53;0.77;;;0.77;;
57573;SDS011;68988;49.000;21.242;2023-06-19T00:21:21;0.75;;;0.75;;
57573;SDS011;68988;49.000;21.242;2023-06-19T00:23:50;0.63;;;0.63;;
57573;SDS011;68988;49.000;21.242;2023-06-19T00:26:16;0.80;;;0.80;;
57573;SDS011;68988;49.000;21.242;2023-06-19T00:28:42;0.70;;;0.70;;
57573;SDS011;68988;49.000;21.242;2023-06-19T00:31:10;0.70;;;0.70;;
57573;SDS011;68988;49.000;21.242;2023-06-19T00:33:38;0.65;;;0.65;;
57573;SDS011;68988;49.000;21.242;2023-06-19T00:36:08;0.73;;;0.73;;
57573;SDS011;68988;49.000;21.242;2023-06-19T00:38:34;2.40;;;0.80;;
57573;SDS011;68988;49.000;21.242;2023-06-19T00:41:00;0.63;;;0.63;;
57573;SDS011;68988;49.000;21.242;2023-06-19T00:43:26;0.80;;;0.80;;
57573;SDS011;68988;49.000;21.242;2023-06-19T00:45:51;0.75;;;0.75;;
57573;SDS011;68988;49.000;21.242;2023-06-19T00:48:16;0.60;;;0.60;;
57573;SDS011;68988;49.000;21.242;2023-06-19T00:50:42;0.80;;;0.80;;
57573;SDS011;68988;49.000;21.242;2023-06-19T00:53:08;0.70;;;0.70;;
57573;SDS011;68988;49.000;21.242;2023-06-19T00:55:33;0.63;;;0.63;;
57573;SDS011;68988;49.000;21.242;2023-06-19T00:58:00;0.63;;;0.63;;
57573;SDS011;68988;49.000;21.242;2023-06-19T01:00:25;0.80;;;0.80;;
57573;SDS011;68988;49.000;21.242;2023-06-19T01:02:51;0.80;;;0.80;;
57573;SDS011;68988;49.000;21.242;2023-06-19T01:05:16;0.75;;;0.75;;
57573;SDS011;68988;49.000;21.242;2023-06-19T01:07:46;0.70;;;0.70;;
57573;SDS011;68988;49.000;21.242;2023-06-19T01:10:21;0.50;;;0.50;;
57573;SDS011;68988;49.000;21.242;2023-06-19T01:15:43;0.73;;;0.73;;
57573;SDS011;68988;49.000;21.242;2023-06-19T01:18:09;0.80;;;0.80;;
57573;SDS011;68988;49.000;21.242;2023-06-19T01:20:38;0.93;;;0.93;;
57573;SDS011;68988;49.000;21.242;2023-06-19T01:23:07;0.57;;;0.57;;
57573;SDS011;68988;49.000;21.242;2023-06-19T01:25:33;0.75;;;0.75;;
57573;SDS011;68988;49.000;21.242;2023-06-19T01:27:58;0.88;;;0.88;;
57573;SDS011;68988;49.000;21.242;2023-06-19T01:30:24;0.80;;;0.80;;
57573;SDS011;68988;49.000;21.242;2023-06-19T01:35:21;1.08;;;1.08;;
57573;SDS011;68988;49.000;21.242;2023-06-19T01:37:50;0.80;;;0.80;;
57573;SDS011;68988;49.000;21.242;2023-06-19T01:40:17;0.80;;;0.80;;
57573;SDS011;68988;49.000;21.242;2023-06-19T01:42:46;0.98;;;0.80;;
57573;SDS011;68988;49.000;21.242;2023-06-19T01:45:12;0.60;;;0.60;;
57573;SDS011;68988;49.000;21.242;2023-06-19T01:47:38;0.70;;;0.70;;
57573;SDS011;68988;49.000;21.242;2023-06-19T01:50:03;1.48;;;0.70;;
57573;SDS011;68988;49.000;21.242;2023-06-19T01:52:29;0.80;;;0.80;;
57573;SDS011;68988;49.000;21.242;2023-06-19T01:54:55;1.30;;;0.90;;
57573;SDS011;68988;49.000;21.242;2023-06-19T01:57:20;1.00;;;0.70;;
57573;SDS011;68988;49.000;21.242;2023-06-19T01:59:45;0.70;;;0.70;;
57573;SDS011;68988;49.000;21.242;2023-06-19T02:02:11;0.50;;;0.50;;
57573;SDS011;68988;49.000;21.242;2023-06-19T02:04:36;0.80;;;0.80;;
57573;SDS011;68988;49.000;21.242;2023-06-19T02:07:02;0.70;;;0.70;;
57573;SDS011;68988;49.000;21.242;2023-06-19T02:09:27;0.88;;;0.88;;
57573;SDS011;68988;49.000;21.242;2023-06-19T02:11:53;0.65;;;0.65;;
57573;SDS011;68988;49.000;21.242;2023-06-19T02:14:18;0.60;;;0.60;;
57573;SDS011;68988;49.000;21.242;2023-06-19T02:16:43;0.82;;;0.82;;
57573;SDS011;68988;49.000;21.242;2023-06-19T02:19:10;0.60;;;0.60;;
57573;SDS011;68988;49.000;21.242;2023-06-19T02:21:35;0.68;;;0.68;;
57573;SDS011;68988;49.000;21.242;2023-06-19T02:24:01;0.80;;;0.80;;
57573;SDS011;68988;49.000;21.242;2023-06-19T02:26:26;0.70;;;0.70;;
57573;SDS011;68988;49.000;21.242;2023-06-19T02:28:54;0.68;;;0.68;;
57573;SDS011;68988;49.000;21.242;2023-06-19T02:31:20;0.60;;;0.60;;
57573;SDS011;68988;49.000;21.242;2023-06-19T02:33:50;0.82;;;0.82;;
57573;SDS011;68988;49.000;21.242;2023-06-19T02:36:16;0.80;;;0.80;;
57573;SDS011;68988;49.000;21.242;2023-06-19T02:38:47;0.70;;;0.60;;
57573;SDS011;68988;49.000;21.242;2023-06-19T02:41:13;0.70;;;0.70;;
57573;SDS011;68988;49.000;21.242;2023-06-19T02:43:42;0.60;;;0.60;;
57573;SDS011;68988;49.000;21.242;2023-06-19T02:46:08;0.70;;;0.70;;
57573;SDS011;68988;49.000;21.242;2023-06-19T02:48:34;0.63;;;0.63;;
57573;SDS011;68988;49.000;21.242;2023-06-19T02:50:59;0.70;;;0.70;;
57573;SDS011;68988;49.000;21.242;2023-06-19T02:53:25;0.75;;;0.75;;
57573;SDS011;68988;49.000;21.242;2023-06-19T02:55:50;0.50;;;0.50;;
57573;SDS011;68988;49.000;21.242;2023-06-19T02:58:16;0.77;;;0.77;;
57573;SDS011;68988;49.000;21.242;2023-06-19T03:00:41;0.70;;;0.70;;
57573;SDS011;68988;49.000;21.242;2023-06-19T03:03:06;0.60;;;0.60;;
57573;SDS011;68988;49.000;21.242;2023-06-19T03:05:32;0.90;;;0.90;;
57573;SDS011;68988;49.000;21.242;2023-06-19T03:07:57;0.98;;;0.70;;
57573;SDS011;68988;49.000;21.242;2023-06-19T03:10:22;0.60;;;0.60;;
57573;SDS011;68988;49.000;21.242;2023-06-19T03:12:48;0.60;;;0.60;;
57573;SDS011;68988;49.000;21.242;2023-06-19T03:15:13;0.68;;;0.68;;
57573;SDS011;68988;49.000;21.242;2023-06-19T03:17:39;0.60;;;0.60;;
57573;SDS011;68988;49.000;21.242;2023-06-19T03:20:04;0.60;;;0.60;;
57573;SDS011;68988;49.000;21.242;2023-06-19T03:22:31;0.70;;;0.70;;
57573;SDS011;68988;49.000;21.242;2023-06-19T03:24:56;0.57;;;0.57;;
57573;SDS011;68988;49.000;21.242;2023-06-19T03:27:22;0.70;;;0.70;;
57573;SDS011;68988;49.000;21.242;2023-06-19T03:29:51;0.60;;;0.60;;
57573;SDS011;68988;49.000;21.242;2023-06-19T03:32:16;0.70;;;0.70;;
57573;SDS011;68988;49.000;21.242;2023-06-19T03:34:45;0.73;;;0.73;;
57573;SDS011;68988;49.000;21.242;2023-06-19T03:37:11;0.60;;;0.60;;
57573;SDS011;68988;49.000;21.242;2023-06-19T03:39:37;0.65;;;0.65;;
57573;SDS011;68988;49.000;21.242;2023-06-19T03:42:02;0.57;;;0.57;;
57573;SDS011;68988;49.000;21.242;2023-06-19T03:44:28;0.70;;;0.70;;
57573;SDS011;68988;49.000;21.242;2023-06-19T03:46:53;0.70;;;0.70;;
57573;SDS011;68988;49.000;21.242;2023-06-19T03:49:19;0.70;;;0.70;;
57573;SDS011;68988;49.000;21.242;2023-06-19T03:51:44;0.70;;;0.70;;
57573;SDS011;68988;49.000;21.242;2023-06-19T03:54:10;1.20;;;0.68;;
57573;SDS011;68988;49.000;21.242;2023-06-19T03:56:35;0.70;;;0.70;;
57573;SDS011;68988;49.000;21.242;2023-06-19T03:59:00;0.60;;;0.60;;
57573;SDS011;68988;49.000;21.242;2023-06-19T04:01:26;0.60;;;0.60;;
57573;SDS011;68988;49.000;21.242;2023-06-19T04:03:51;0.95;;;0.80;;
57573;SDS011;68988;49.000;21.242;2023-06-19T04:06:17;0.70;;;0.70;;
57573;SDS011;68988;49.000;21.242;2023-06-19T04:08:42;1.00;;;0.73;;
57573;SDS011;68988;49.000;21.242;2023-06-19T04:11:08;0.88;;;0.77;;
57573;SDS011;68988;49.000;21.242;2023-06-19T04:13:33;0.90;;;0.90;;
57573;SDS011;68988;49.000;21.242;2023-06-19T04:15:58;0.70;;;0.70;;
57573;SDS011;68988;49.000;21.242;2023-06-19T04:18:24;0.88;;;0.88;;
57573;SDS011;68988;49.000;21.242;2023-06-19T04:20:49;0.55;;;0.55;;
57573;SDS011;68988;49.000;21.242;2023-06-19T04:23:14;0.60;;;0.60;;
57573;SDS011;68988;49.000;21.242;2023-06-19T04:25:40;0.60;;;0.60;;
57573;SDS011;68988;49.000;21.242;2023-06-19T04:28:05;0.60;;;0.60;;
57573;SDS011;68988;49.000;21.242;2023-06-19T04:30:31;0.60;;;0.60;;
57573;SDS011;68988;49.000;21.242;2023-06-19T04:32:59;0.60;;;0.60;;
57573;SDS011;68988;49.000;21.242;2023-06-19T04:35:24;0.50;;;0.50;;
57573;SDS011;68988;49.000;21.242;2023-06-19T04:37:50;0.57;;;0.57;;
57573;SDS011;68988;49.000;21.242;2023-06-19T04:40:15;0.65;;;0.65;;
57573;SDS011;68988;49.000;21.242;2023-06-19T04:42:40;0.60;;;0.60;;
57573;SDS011;68988;49.000;21.242;2023-06-19T04:45:06;0.60;;;0.60;;
57573;SDS011;68988;49.000;21.242;2023-06-19T04:47:32;0.77;;;0.77;;
57573;SDS011;68988;49.000;21.242;2023-06-19T04:50:01;0.63;;;0.63;;
57573;SDS011;68988;49.000;21.242;2023-06-19T04:52:27;0.90;;;0.90;;
57573;SDS011;68988;49.000;21.242;2023-06-19T04:54:52;3.72;;;2.53;;
57573;SDS011;68988;49.000;21.242;2023-06-19T04:57:18;4.75;;;2.00;;
57573;SDS011;68988;49.000;21.242;2023-06-19T04:59:43;8.27;;;2.30;;
57573;SDS011;68988;49.000;21.242;2023-06-19T05:02:11;8.50;;;2.45;;
57573;SDS011;68988;49.000;21.242;2023-06-19T05:04:37;3.83;;;2.28;;
57573;SDS011;68988;49.000;21.242;2023-06-19T05:07:02;4.38;;;2.30;;
57573;SDS011;68988;49.000;21.242;2023-06-19T05:09:28;3.97;;;2.42;;
57573;SDS011;68988;49.000;21.242;2023-06-19T05:11:53;4.88;;;2.45;;
57573;SDS011;68988;49.000;21.242;2023-06-19T05:14:19;3.65;;;2.90;;
57573;SDS011;68988;49.000;21.242;2023-06-19T05:16:44;3.72;;;2.42;;
57573;SDS011;68988;49.000;21.242;2023-06-19T05:19:10;2.40;;;2.20;;
57573;SDS011;68988;49.000;21.242;2023-06-19T05:21:35;19.10;;;2.78;;
57573;SDS011;68988;49.000;21.242;2023-06-19T05:24:01;9.15;;;2.60;;
57573;SDS011;68988;49.000;21.242;2023-06-19T05:26:26;3.45;;;2.58;;
57573;SDS011;68988;49.000;21.242;2023-06-19T05:28:51;8.35;;;2.97;;
57573;SDS011;68988;49.000;21.242;2023-06-19T05:31:17;4.60;;;2.92;;
57573;SDS011;68988;49.000;21.242;2023-06-19T05:33:43;8.60;;;2.85;;
57573;SDS011;68988;49.000;21.242;2023-06-19T05:36:09;10.65;;;3.03;;
57573;SDS011;68988;49.000;21.242;2023-06-19T05:38:34;4.78;;;2.40;;
57573;SDS011;68988;49.000;21.242;2023-06-19T05:40:59;3.75;;;2.58;;
57573;SDS011;68988;49.000;21.242;2023-06-19T05:43:25;7.03;;;2.30;;
57573;SDS011;68988;49.000;21.242;2023-06-19T05:45:50;5.53;;;2.17;;
57573;SDS011;68988;49.000;21.242;2023-06-19T05:48:17;9.15;;;2.20;;
57573;SDS011;68988;49.000;21.242;2023-06-19T05:50:42;7.65;;;2.08;;
57573;SDS011;68988;49.000;21.242;2023-06-19T05:53:08;3.20;;;2.80;;
57573;SDS011;68988;49.000;21.242;2023-06-19T05:55:33;9.38;;;2.25;;
57573;SDS011;68988;49.000;21.242;2023-06-19T05:57:58;2.83;;;2.63;;
57573;SDS011;68988;49.000;21.242;2023-06-19T06:00:24;7.55;;;2.05;;
57573;SDS011;68988;49.000;21.242;2023-06-19T06:02:49;5.60;;;2.47;;
57573;SDS011;68988;49.000;21.242;2023-06-19T06:05:16;2.80;;;2.47;;
57573;SDS011;68988;49.000;21.242;2023-06-19T06:07:43;5.15;;;2.35;;
57573;SDS011;68988;49.000;21.242;2023-06-19T06:10:09;2.70;;;2.17;;
57573;SDS011;68988;49.000;21.242;2023-06-19T06:12:35;2.90;;;2.38;;
57573;SDS011;68988;49.000;21.242;2023-06-19T06:15:01;4.28;;;2.20;;
57573;SDS011;68988;49.000;21.242;2023-06-19T06:17:27;3.00;;;2.78;;
57573;SDS011;68988;49.000;21.242;2023-06-19T06:19:53;8.00;;;2.38;;
57573;SDS011;68988;49.000;21.242;2023-06-19T06:22:18;5.55;;;2.45;;
57573;SDS011;68988;49.000;21.242;2023-06-19T06:24:44;16.55;;;2.60;;
57573;SDS011;68988;49.000;21.242;2023-06-19T06:27:11;3.28;;;2.40;;
57573;SDS011;68988;49.000;21.242;2023-06-19T06:29:36;7.30;;;2.30;;
57573;SDS011;68988;49.000;21.242;2023-06-19T06:32:03;6.82;;;2.03;;
57573;SDS011;68988;49.000;21.242;2023-06-19T06:34:30;5.40;;;2.40;;
57573;SDS011;68988;49.000;21.242;2023-06-19T06:36:57;3.45;;;2.25;;
57573;SDS011;68988;49.000;21.242;2023-06-19T06:39:23;3.80;;;2.25;;
57573;SDS011;68988;49.000;21.242;2023-06-19T06:41:48;4.88;;;2.38;;
57573;SDS011;68988;49.000;21.242;2023-06-19T06:44:13;8.68;;;2.33;;
57573;SDS011;68988;49.000;21.242;2023-06-19T06:46:39;9.52;;;2.42;;
57573;SDS011;68988;49.000;21.242;2023-06-19T06:49:04;9.65;;;2.53;;
57573;SDS011;68988;49.000;21.242;2023-06-19T06:51:29;3.15;;;2.47;;
57573;SDS011;68988;49.000;21.242;2023-06-19T06:53:54;7.78;;;2.40;;
57573;SDS011;68988;49.000;21.242;2023-06-19T06:56:20;8.52;;;2.28;;
57573;SDS011;68988;49.000;21.242;2023-06-19T06:58:45;7.95;;;2.20;;
57573;SDS011;68988;49.000;21.242;2023-06-19T07:01:12;7.55;;;2.30;;
57573;SDS011;68988;49.000;21.242;2023-06-19T07:03:37;7.57;;;2.22;;
57573;SDS011;68988;49.000;21.242;2023-06-19T07:06:02;6.15;;;2.00;;
57573;SDS011;68988;49.000;21.242;2023-06-19T07:08:28;3.50;;;2.05;;
57573;SDS011;68988;49.000;21.242;2023-06-19T07:10:53;5.82;;;2.53;;
57573;SDS011;68988;49.000;21.242;2023-06-19T07:13:18;6.38;;;2.38;;
57573;SDS011;68988;49.000;21.242;2023-06-19T07:15:44;3.47;;;2.42;;
57573;SDS011;68988;49.000;21.242;2023-06-19T07:18:09;4.53;;;2.30;;
57573;SDS011;68988;49.000;21.242;2023-06-19T07:20:35;2.58;;;2.17;;
57573;SDS011;68988;49.000;21.242;2023-06-19T07:23:00;7.25;;;2.50;;
57573;SDS011;68988;49.000;21.242;2023-06-19T07:25:26;13.82;;;2.50;;
57573;SDS011;68988;49.000;21.242;2023-06-19T07:27:52;5.22;;;2.42;;
57573;SDS011;68988;49.000;21.242;2023-06-19T07:30:17;10.13;;;2.30;;
57573;SDS011;68988;49.000;21.242;2023-06-19T07:32:42;7.35;;;2.40;;
57573;SDS011;68988;49.000;21.242;2023-06-19T07:35:08;7.63;;;2.72;;
57573;SDS011;68988;49.000;21.242;2023-06-19T07:37:34;5.93;;;2.72;;
57573;SDS011;68988;49.000;21.242;2023-06-19T07:39:59;8.82;;;2.60;;
57573;SDS011;68988;49.000;21.242;2023-06-19T07:42:25;7.20;;;2.38;;
57573;SDS011;68988;49.000;21.242;2023-06-19T07:44:51;5.38;;;2.30;;
57573;SDS011;68988;49.000;21.242;2023-06-19T07:47:18;5.90;;;1.95;;
57573;SDS011;68988;49.000;21.242;2023-06-19T07:49:43;6.53;;;2.42;;
57573;SDS011;68988;49.000;21.242;2023-06-19T07:52:10;8.80;;;2.40;;
57573;SDS011;68988;49.000;21.242;2023-06-19T07:54:35;5.10;;;2.25;;
57573;SDS011;68988;49.000;21.242;2023-06-19T07:57:01;3.95;;;2.40;;
57573;SDS011;68988;49.000;21.242;2023-06-19T07:59:26;9.63;;;2.40;;
57573;SDS011;68988;49.000;21.242;2023-06-19T08:01:52;3.10;;;2.28;;
57573;SDS011;68988;49.000;21.242;2023-06-19T08:04:17;8.20;;;2.40;;
57573;SDS011;68988;49.000;21.242;2023-06-19T08:06:43;5.03;;;2.40;;
57573;SDS011;68988;49.000;21.242;2023-06-19T08:09:08;15.45;;;2.00;;
57573;SDS011;68988;49.000;21.242;2023-06-19T08:11:33;6.97;;;2.42;;
57573;SDS011;68988;49.000;21.242;2023-06-19T08:14:00;23.70;;;2.92;;
57573;SDS011;68988;49.000;21.242;2023-06-19T08:16:26;15.43;;;2.30;;
57573;SDS011;68988;49.000;21.242;2023-06-19T08:18:51;6.78;;;2.25;;
57573;SDS011;68988;49.000;21.242;2023-06-19T08:21:17;11.02;;;2.47;;
57573;SDS011;68988;49.000;21.242;2023-06-19T08:23:42;12.80;;;2.90;;
57573;SDS011;68988;49.000;21.242;2023-06-19T08:26:11;10.60;;;2.33;;
57573;SDS011;68988;49.000;21.242;2023-06-19T08:28:37;6.72;;;2.30;;
57573;SDS011;68988;49.000;21.242;2023-06-19T08:31:02;9.88;;;2.20;;
57573;SDS011;68988;49.000;21.242;2023-06-19T08:33:27;13.82;;;2.45;;
57573;SDS011;68988;49.000;21.242;2023-06-19T08:35:53;11.10;;;2.55;;
57573;SDS011;68988;49.000;21.242;2023-06-19T08:38:18;13.45;;;2.33;;
57573;SDS011;68988;49.000;21.242;2023-06-19T08:40:44;17.35;;;2.40;;
57573;SDS011;68988;49.000;21.242;2023-06-19T08:43:10;6.28;;;2.30;;
57573;SDS011;68988;49.000;21.242;2023-06-19T08:45:35;14.70;;;2.28;;
57573;SDS011;68988;49.000;21.242;2023-06-19T08:48:01;7.72;;;2.35;;
57573;SDS011;68988;49.000;21.242;2023-06-19T08:50:29;5.40;;;2.25;;
57573;SDS011;68988;49.000;21.242;2023-06-19T08:52:55;8.27;;;1.98;;
57573;SDS011;68988;49.000;21.242;2023-06-19T08:55:21;6.25;;;2.05;;
57573;SDS011;68988;49.000;21.242;2023-06-19T08:57:47;7.78;;;1.98;;
57573;SDS011;68988;49.000;21.242;2023-06-19T09:00:22;6.43;;;2.20;;
57573;SDS011;68988;49.000;21.242;2023-06-19T09:02:51;5.88;;;2.10;;
57573;SDS011;68988;49.000;21.242;2023-06-19T09:05:18;4.82;;;2.22;;
57573;SDS011;68988;49.000;21.242;2023-06-19T09:07:46;6.55;;;2.20;;
57573;SDS011;68988;49.000;21.242;2023-06-19T09:10:20;7.80;;;2.20;;
57573;SDS011;68988;49.000;21.242;2023-06-19T09:13:01;8.20;;;2.63;;
57573;SDS011;68988;49.000;21.242;2023-06-19T09:18:14;4.85;;;2.05;;
57573;SDS011;68988;49.000;21.242;2023-06-19T09:20:40;17.45;;;3.30;;
57573;SDS011;68988;49.000;21.242;2023-06-19T09:25:47;3.63;;;2.40;;
57573;SDS011;68988;49.000;21.242;2023-06-19T09:28:20;4.43;;;2.30;;
57573;SDS011;68988;49.000;21.242;2023-06-19T09:33:26;4.05;;;2.90;;
57573;SDS011;68988;49.000;21.242;2023-06-19T09:35:56;5.63;;;2.80;;
57573;SDS011;68988;49.000;21.242;2023-06-19T09:38:30;16.52;;;2.60;;
57573;SDS011;68988;49.000;21.242;2023-06-19T09:40:57;2.55;;;2.13;;
57573;SDS011;68988;49.000;21.242;2023-06-19T09:43:36;3.63;;;2.40;;
57573;SDS011;68988;49.000;21.242;2023-06-19T09:46:04;3.25;;;2.50;;
57573;SDS011;68988;49.000;21.242;2023-06-19T09:48:30;9.13;;;2.63;;
57573;SDS011;68988;49.000;21.242;2023-06-19T09:51:00;6.05;;;2.75;;
57573;SDS011;68988;49.000;21.242;2023-06-19T09:53:32;2.80;;;2.38;;
57573;SDS011;68988;49.000;21.242;2023-06-19T09:55:59;2.92;;;2.70;;
57573;SDS011;68988;49.000;21.242;2023-06-19T09:58:24;4.78;;;2.47;;
57573;SDS011;68988;49.000;21.242;2023-06-19T10:00:50;6.95;;;2.63;;
57573;SDS011;68988;49.000;21.242;2023-06-19T10:03:16;7.93;;;2.80;;
57573;SDS011;68988;49.000;21.242;2023-06-19T10:05:41;6.53;;;2.97;;
57573;SDS011;68988;49.000;21.242;2023-06-19T10:08:08;9.23;;;2.45;;
57573;SDS011;68988;49.000;21.242;2023-06-19T10:10:34;4.68;;;2.42;;
57573;SDS011;68988;49.000;21.242;2023-06-19T10:13:10;2.60;;;2.50;;
57573;SDS011;68988;49.000;21.242;2023-06-19T10:15:40;3.92;;;2.28;;
57573;SDS011;68988;49.000;21.242;2023-06-19T10:18:16;2.80;;;2.60;;
57573;SDS011;68988;49.000;21.242;2023-06-19T10:20:43;2.95;;;2.65;;
57573;SDS011;68988;49.000;21.242;2023-06-19T10:25:43;2.97;;;2.60;;
57573;SDS011;68988;49.000;21.242;2023-06-19T10:28:23;3.13;;;2.90;;
57573;SDS011;68988;49.000;21.242;2023-06-19T10:30:59;3.97;;;2.70;;
57573;SDS011;68988;49.000;21.242;2023-06-19T10:33:27;5.47;;;2.90;;
57573;SDS011;68988;49.000;21.242;2023-06-19T10:35:53;5.57;;;2.72;;
57573;SDS011;68988;49.000;21.242;2023-06-19T10:38:19;7.72;;;2.95;;
57573;SDS011;68988;49.000;21.242;2023-06-19T10:40:45;2.78;;;2.58;;
57573;SDS011;68988;49.000;21.242;2023-06-19T10:43:13;4.55;;;2.80;;
57573;SDS011;68988;49.000;21.242;2023-06-19T10:45:45;3.15;;;2.38;;
57573;SDS011;68988;49.000;21.242;2023-06-19T10:48:10;9.57;;;3.17;;
57573;SDS011;68988;49.000;21.242;2023-06-19T10:50:37;7.05;;;2.50;;
57573;SDS011;68988;49.000;21.242;2023-06-19T10:53:06;4.47;;;3.05;;
57573;SDS011;68988;49.000;21.242;2023-06-19T10:55:32;3.10;;;2.78;;
57573;SDS011;68988;49.000;21.242;2023-06-19T10:57:57;3.10;;;2.72;;
57573;SDS011;68988;49.000;21.242;2023-06-19T11:00:27;3.30;;;3.10;;
57573;SDS011;68988;49.000;21.242;2023-06-19T11:02:59;2.85;;;2.65;;
57573;SDS011;68988;49.000;21.242;2023-06-19T11:05:25;3.00;;;2.80;;
57573;SDS011;68988;49.000;21.242;2023-06-19T11:07:52;5.53;;;2.97;;
57573;SDS011;68988;49.000;21.242;2023-06-19T11:10:27;7.13;;;3.00;;
57573;SDS011;68988;49.000;21.242;2023-06-19T11:12:57;8.35;;;2.50;;
57573;SDS011;68988;49.000;21.242;2023-06-19T11:15:30;2.95;;;2.75;;
57573;SDS011;68988;49.000;21.242;2023-06-19T11:17:59;10.23;;;2.60;;
57573;SDS011;68988;49.000;21.242;2023-06-19T11:20:26;2.78;;;2.67;;
57573;SDS011;68988;49.000;21.242;2023-06-19T11:22:55;5.47;;;2.45;;
57573;SDS011;68988;49.000;21.242;2023-06-19T11:25:22;3.72;;;2.55;;
57573;SDS011;68988;49.000;21.242;2023-06-19T11:27:48;4.47;;;2.80;;
57573;SDS011;68988;49.000;21.242;2023-06-19T11:30:17;2.90;;;2.70;;
57573;SDS011;68988;49.000;21.242;2023-06-19T11:32:42;3.45;;;2.75;;
57573;SDS011;68988;49.000;21.242;2023-06-19T11:35:11;4.30;;;2.50;;
57573;SDS011;68988;49.000;21.242;2023-06-19T11:37:40;3.20;;;2.90;;
57573;SDS011;68988;49.000;21.242;2023-06-19T11:40:06;2.95;;;2.47;;
57573;SDS011;68988;49.000;21.242;2023-06-19T11:42:52;3.00;;;2.80;;
57573;SDS011;68988;49.000;21.242;2023-06-19T11:45:18;4.18;;;2.60;;
57573;SDS011;68988;49.000;21.242;2023-06-19T11:47:44;2.80;;;2.60;;
57573;SDS011;68988;49.000;21.242;2023-06-19T11:50:11;3.00;;;2.70;;
57573;SDS011;68988;49.000;21.242;2023-06-19T11:52:37;2.90;;;2.70;;
57573;SDS011;68988;49.000;21.242;2023-06-19T11:55:03;6.10;;;2.67;;
57573;SDS011;68988;49.000;21.242;2023-06-19T11:57:28;6.57;;;2.80;;
57573;SDS011;68988;49.000;21.242;2023-06-19T11:59:54;2.67;;;2.47;;
57573;SDS011;68988;49.000;21.242;2023-06-19T12:02:20;10.95;;;2.60;;
57573;SDS011;68988;49.000;21.242;2023-06-19T12:04:46;2.85;;;2.65;;
57573;SDS011;68988;49.000;21.242;2023-06-19T12:07:11;2.83;;;2.63;;
57573;SDS011;68988;49.000;21.242;2023-06-19T12:09:36;3.13;;;2.83;;
57573;SDS011;68988;49.000;21.242;2023-06-19T12:12:04;2.95;;;2.75;;
57573;SDS011;68988;49.000;21.242;2023-06-19T12:14:30;2.85;;;2.60;;
57573;SDS011;68988;49.000;21.242;2023-06-19T12:16:55;5.25;;;2.45;;
57573;SDS011;68988;49.000;21.242;2023-06-19T12:19:20;5.50;;;2.58;;
57573;SDS011;68988;49.000;21.242;2023-06-19T12:21:46;4.82;;;2.70;;
57573;SDS011;68988;49.000;21.242;2023-06-19T12:24:11;2.67;;;2.47;;
57573;SDS011;68988;49.000;21.242;2023-06-19T12:26:37;2.35;;;2.25;;
57573;SDS011;68988;49.000;21.242;2023-06-19T12:29:03;3.70;;;2.83;;
57573;SDS011;68988;49.000;21.242;2023-06-19T12:31:30;5.68;;;2.92;;
57573;SDS011;68988;49.000;21.242;2023-06-19T12:33:56;2.95;;;2.70;;
57573;SDS011;68988;49.000;21.242;2023-06-19T12:36:21;3.10;;;2.85;;
57573;SDS011;68988;49.000;21.242;2023-06-19T12:38:47;3.08;;;2.78;;
57573;SDS011;68988;49.000;21.242;2023-06-19T12:41:14;2.67;;;2.47;;
57573;SDS011;68988;49.000;21.242;2023-06-19T12:43:40;3.58;;;2.50;;
57573;SDS011;68988;49.000;21.242;2023-06-19T12:46:06;2.90;;;2.70;;
57573;SDS011;68988;49.000;21.242;2023-06-19T12:48:32;3.53;;;2.05;;
57573;SDS011;68988;49.000;21.242;2023-06-19T12:50:58;5.13;;;2.35;;
57573;SDS011;68988;49.000;21.242;2023-06-19T12:53:23;5.85;;;2.60;;
57573;SDS011;68988;49.000;21.242;2023-06-19T12:55:52;6.65;;;2.65;;
57573;SDS011;68988;49.000;21.242;2023-06-19T12:58:18;6.80;;;2.88;;
57573;SDS011;68988;49.000;21.242;2023-06-19T13:00:44;2.63;;;2.42;;
57573;SDS011;68988;49.000;21.242;2023-06-19T13:03:09;122.50;;;5.85;;
57573;SDS011;68988;49.000;21.242;2023-06-19T13:05:34;3.30;;;2.67;;
57573;SDS011;68988;49.000;21.242;2023-06-19T13:08:00;3.88;;;2.30;;
57573;SDS011;68988;49.000;21.242;2023-06-19T13:10:25;2.72;;;2.47;;
57573;SDS011;68988;49.000;21.242;2023-06-19T13:12:51;6.53;;;2.78;;
57573;SDS011;68988;49.000;21.242;2023-06-19T13:15:16;2.35;;;2.15;;
57573;SDS011;68988;49.000;21.242;2023-06-19T13:17:42;3.25;;;2.17;;
57573;SDS011;68988;49.000;21.242;2023-06-19T13:20:07;2.50;;;2.33;;
57573;SDS011;68988;49.000;21.242;2023-06-19T13:22:33;3.63;;;2.65;;
57573;SDS011;68988;49.000;21.242;2023-06-19T13:24:58;2.60;;;2.40;;
57573;SDS011;68988;49.000;21.242;2023-06-19T13:27:24;4.68;;;2.80;;
57573;SDS011;68988;49.000;21.242;2023-06-19T13:29:49;5.63;;;2.58;;
57573;SDS011;68988;49.000;21.242;2023-06-19T13:32:15;4.93;;;2.20;;
57573;SDS011;68988;49.000;21.242;2023-06-19T13:34:40;5.93;;;2.50;;
57573;SDS011;68988;49.000;21.242;2023-06-19T13:37:06;3.05;;;2.85;;
57573;SDS011;68988;49.000;21.242;2023-06-19T13:39:31;2.63;;;2.42;;
57573;SDS011;68988;49.000;21.242;2023-06-19T13:41:57;2.50;;;2.30;;
57573;SDS011;68988;49.000;21.242;2023-06-19T13:44:22;9.45;;;2.78;;
57573;SDS011;68988;49.000;21.242;2023-06-19T13:46:47;3.80;;;2.47;;
57573;SDS011;68988;49.000;21.242;2023-06-19T13:49:13;9.95;;;2.70;;
57573;SDS011;68988;49.000;21.242;2023-06-19T13:51:39;2.88;;;2.67;;
57573;SDS011;68988;49.000;21.242;2023-06-19T13:54:04;2.78;;;2.45;;
57573;SDS011;68988;49.000;21.242;2023-06-19T13:56:30;5.85;;;2.65;;
57573;SDS011;68988;49.000;21.242;2023-06-19T13:58:57;3.63;;;2.30;;
57573;SDS011;68988;49.000;21.242;2023-06-19T14:01:23;6.15;;;2.50;;
57573;SDS011;68988;49.000;21.242;2023-06-19T14:03:50;3.67;;;2.42;;
57573;SDS011;68988;49.000;21.242;2023-06-19T14:06:15;6.68;;;2.10;;
57573;SDS011;68988;49.000;21.242;2023-06-19T14:08:41;2.60;;;2.40;;
57573;SDS011;68988;49.000;21.242;2023-06-19T14:11:06;3.60;;;2.30;;
57573;SDS011;68988;49.000;21.242;2023-06-19T14:13:31;12.50;;;2.67;;
57573;SDS011;68988;49.000;21.242;2023-06-19T14:15:57;3.25;;;2.47;;
57573;SDS011;68988;49.000;21.242;2023-06-19T14:18:23;10.65;;;2.50;;
57573;SDS011;68988;49.000;21.242;2023-06-19T14:20:48;4.25;;;2.75;;
57573;SDS011;68988;49.000;21.242;2023-06-19T14:23:14;7.78;;;2.83;;
57573;SDS011;68988;49.000;21.242;2023-06-19T14:25:39;2.55;;;2.35;;
57573;SDS011;68988;49.000;21.242;2023-06-19T14:28:04;6.72;;;2.60;;
57573;SDS011;68988;49.000;21.242;2023-06-19T14:30:30;4.07;;;2.47;;
57573;SDS011;68988;49.000;21.242;2023-06-19T14:32:55;2.60;;;2.40;;
57573;SDS011;68988;49.000;21.242;2023-06-19T14:35:21;2.35;;;2.15;;
57573;SDS011;68988;49.000;21.242;2023-06-19T14:37:46;5.75;;;2.47;;
57573;SDS011;68988;49.000;21.242;2023-06-19T14:40:11;3.47;;;2.60;;
57573;SDS011;68988;49.000;21.242;2023-06-19T14:42:37;2.63;;;2.42;;
57573;SDS011;68988;49.000;21.242;2023-06-19T14:45:02;2.67;;;2.47;;